Time;durP1;ratioP1;P1;durP2;ratioP2;P2;SDS_P1;SDS_P2;PMS_P1;PMS_P2;Temp;Humidity;BMP_temperature;BMP_pressure;BME280_temperature;BME280_humidity;BME280_pressure;Samples;Min_cycle;Max_cycle;Signal;HPM_P1;HPM_P2
2021/12/16 00:33:42;;;;;;;52.03;15.98;;;;;;;7.13;100.00;102968.16;4991882;28;21974;-77
2021/12/16 00:36:09;;;;;;;48.88;15.18;;;;;;;7.14;100.00;102982.31;5012792;28;20048;-77
2021/12/16 00:38:35;;;;;;;45.95;16.58;;;;;;;7.10;100.00;102976.50;5012508;28;20553;-77
2021/12/16 00:41:04;;;;;;;51.67;16.42;;;;;;;7.15;100.00;102973.31;5022264;28;20124;-77
2021/12/16 00:43:47;;;;;;;47.35;17.65;;;;;;;7.16;100.00;102978.47;5012599;28;20037;-76
2021/12/16 00:49:21;;;;;;;43.35;16.67;;;;;;;7.15;100.00;102975.97;5012462;28;20243;-76
2021/12/16 00:54:32;;;;;;;42.88;17.20;;;;;;;7.11;100.00;102975.50;5025421;28;20029;-76
2021/12/16 00:57:06;;;;;;;45.35;17.55;;;;;;;7.10;100.00;102978.34;5021116;28;20315;-77
2021/12/16 00:59:36;;;;;;;;;;;;;;;7.15;100.00;102970.66;5010541;28;20041;-77
2021/12/16 01:56:51;;;;;;;41.40;17.88;;;;;;;7.02;100.00;103038.75;5027360;28;20029;-75
2021/12/16 01:59:20;;;;;;;50.65;17.58;;;;;;;7.06;100.00;103033.06;5009710;28;20234;-75
2021/12/16 02:01:48;;;;;;;51.45;18.15;;;;;;;7.16;100.00;103042.56;5017986;28;20604;-75
2021/12/16 02:04:30;;;;;;;51.75;18.20;;;;;;;7.23;100.00;103029.38;5010107;28;20228;-76
2021/12/16 02:07:22;;;;;;;51.78;17.98;;;;;;;7.24;100.00;103039.03;5003668;28;20025;-75
2021/12/16 02:09:48;;;;;;;57.95;18.40;;;;;;;7.22;100.00;103044.56;5017004;28;20601;-76
2021/12/16 02:12:51;;;;;;;53.25;19.25;;;;;;;7.20;100.00;103043.91;5009219;28;20049;-75
2021/12/16 02:36:47;;;;;;;58.20;21.13;;;;;;;7.05;100.00;103050.91;5007522;28;21946;-75
2021/12/16 02:39:21;;;;;;;56.22;22.13;;;;;;;7.08;100.00;103047.06;5021693;28;20094;-75
2021/12/16 02:41:49;;;;;;;70.13;24.80;;;;;;;7.04;100.00;103043.91;5007421;28;20033;-75
2021/12/16 02:49:34;;;;;;;78.32;25.60;;;;;;;7.03;100.00;103059.09;5006369;28;20112;-75
2021/12/16 02:52:00;;;;;;;66.38;24.30;;;;;;;7.06;100.00;103055.25;5012433;28;20071;-75
2021/12/16 02:54:27;;;;;;;72.88;26.17;;;;;;;7.03;100.00;103051.09;5006716;28;20580;-75
2021/12/16 02:56:55;;;;;;;69.57;25.75;;;;;;;7.07;100.00;103058.75;5004949;28;20039;-75
2021/12/16 02:59:26;;;;;;;75.35;27.13;;;;;;;7.08;100.00;103060.41;5022142;28;20033;-75
2021/12/16 03:01:54;;;;;;;69.53;25.13;;;;;;;6.97;100.00;103042.91;5014957;28;20357;-75
2021/12/16 03:04:27;;;;;;;65.82;24.80;;;;;;;7.09;100.00;103056.75;5011916;28;20481;-76
2021/12/16 03:06:56;;;;;;;65.85;26.00;;;;;;;6.97;100.00;103049.06;5006325;28;20030;-75
2021/12/16 03:10:02;;;;;;;72.65;26.75;;;;;;;6.97;100.00;103043.75;5022108;28;20048;-76
2021/12/16 03:14:57;;;;;;;79.32;27.92;;;;;;;7.02;100.00;103041.41;5015165;28;20050;-75
2021/12/16 03:17:36;;;;;;;88.57;28.02;;;;;;;7.05;100.00;103050.06;5004998;28;20037;-75
2021/12/16 03:20:17;;;;;;;78.28;28.63;;;;;;;7.02;100.00;103054.75;5009087;28;20387;-76
2021/12/16 03:36:27;;;;;;;78.20;27.40;;;;;;;7.09;100.00;103056.75;4972859;28;20042;-75
2021/12/16 03:39:09;;;;;;;69.82;27.65;;;;;;;7.02;100.00;103052.09;4992684;28;20052;-75
2021/12/16 03:41:38;;;;;;;84.53;27.27;;;;;;;6.94;100.00;103048.59;5007970;28;20096;-76
2021/12/16 03:44:09;;;;;;;85.85;27.92;;;;;;;6.90;100.00;103042.72;4992885;28;20029;-75
2021/12/16 03:46:42;;;;;;;87.53;29.27;;;;;;;6.90;100.00;103050.75;4993340;28;20091;-75
2021/12/16 03:49:14;;;;;;;81.97;29.58;;;;;;;6.96;100.00;103047.41;4982389;28;20938;-75
2021/12/16 03:51:57;;;;;;;66.97;27.90;;;;;;;7.02;100.00;103067.28;4992444;28;20072;-76
2021/12/16 03:54:28;;;;;;;78.05;28.10;;;;;;;7.00;100.00;103064.78;5008618;28;20052;-75
2021/12/16 03:56:57;;;;;;;81.40;28.55;;;;;;;6.97;100.00;103065.09;4994312;28;20041;-75
2021/12/16 03:59:29;;;;;;;75.80;27.73;;;;;;;6.96;100.00;103063.41;5002918;28;20095;-75
2021/12/16 04:02:09;;;;;;;81.93;29.20;;;;;;;6.88;100.00;103051.91;4986639;28;20057;-75
2021/12/16 04:04:36;;;;;;;75.40;27.73;;;;;;;6.87;100.00;103063.59;5007340;28;20893;-75
2021/12/16 04:07:05;;;;;;;83.28;27.75;;;;;;;6.88;100.00;103068.75;4992557;28;20025;-76
2021/12/16 04:09:33;;;;;;;90.32;28.00;;;;;;;6.97;100.00;103070.44;5007641;28;20037;-75
2021/12/16 04:12:08;;;;;;;80.55;26.58;;;;;;;6.98;100.00;103073.94;4993622;28;20116;-75
2021/12/16 04:14:35;;;;;;;73.03;26.42;;;;;;;6.96;100.00;103075.94;4991720;28;20169;-75
2021/12/16 04:17:03;;;;;;;87.07;26.67;;;;;;;6.88;100.00;103070.59;4992237;28;20064;-75
2021/12/16 04:19:30;;;;;;;80.97;25.67;;;;;;;6.83;100.00;103068.41;4991754;28;20063;-76
2021/12/16 04:22:04;;;;;;;77.68;25.95;;;;;;;6.79;100.00;103051.06;4992356;28;20155;-75
2021/12/16 04:24:32;;;;;;;89.05;27.85;;;;;;;6.87;100.00;103064.44;5000652;28;20708;-75
2021/12/16 04:26:59;;;;;;;83.15;26.10;;;;;;;6.85;100.00;103077.09;5007350;28;22454;-75
2021/12/16 04:29:27;;;;;;;78.65;25.20;;;;;;;6.89;100.00;103078.44;4992663;28;20029;-76
2021/12/16 04:31:58;;;;;;;78.32;24.67;;;;;;;6.91;100.00;103072.91;5000038;28;20041;-75
2021/12/16 04:34:26;;;;;;;72.85;25.13;;;;;;;6.88;100.00;103071.44;5000842;28;20061;-76
2021/12/16 04:36:53;;;;;;;77.50;25.98;;;;;;;6.78;100.00;103069.94;4996480;28;20033;-75
2021/12/16 04:39:22;;;;;;;85.15;28.40;;;;;;;6.80;100.00;103068.75;5006771;28;20501;-75
2021/12/16 04:41:49;;;;;;;82.78;27.95;;;;;;;6.82;100.00;103077.41;4992662;28;20037;-75
2021/12/16 04:44:17;;;;;;;78.22;27.30;;;;;;;6.82;100.00;103080.09;4991988;28;20033;-75
2021/12/16 04:46:46;;;;;;;70.07;24.65;;;;;;;6.85;100.00;103085.13;4992163;28;20036;-75
2021/12/16 04:49:13;;;;;;;84.28;27.35;;;;;;;6.90;100.00;103090.78;4990808;28;20908;-75
2021/12/16 04:51:41;;;;;;;90.15;27.60;;;;;;;6.90;100.00;103090.78;4991765;28;20448;-75
2021/12/16 04:54:07;;;;;;;79.68;26.65;;;;;;;6.86;100.00;103100.13;4995269;28;20061;-75
2021/12/16 04:56:37;;;;;;;79.90;27.35;;;;;;;6.84;100.00;103095.94;4992338;28;20033;-75
2021/12/16 04:59:08;;;;;;;81.60;27.13;;;;;;;6.80;100.00;103103.44;5006171;28;20115;-74
2021/12/16 05:01:35;;;;;;;92.95;25.95;;;;;;;6.85;100.00;103102.97;4991824;28;20033;-75
2021/12/16 05:04:03;;;;;;;84.68;26.02;;;;;;;6.82;100.00;103103.25;4996287;28;20166;-75
2021/12/16 05:06:29;;;;;;;81.60;27.08;;;;;;;6.83;100.00;103092.41;4999648;28;20144;-75
2021/12/16 05:08:54;;;;;;;94.05;28.52;;;;;;;6.86;100.00;103092.13;4991651;28;20045;-77
2021/12/16 05:11:20;;;;;;;78.05;27.75;;;;;;;6.76;100.00;103072.75;4991253;28;20038;-74
2021/12/16 05:13:46;;;;;;;93.43;28.25;;;;;;;6.91;100.00;103107.63;4966944;28;20144;-76
2021/12/16 05:16:14;;;;;;;83.97;26.88;;;;;;;6.90;100.00;103096.09;4991940;28;20070;-75
2021/12/16 05:18:42;;;;;;;80.07;27.00;;;;;;;6.82;100.00;103089.94;4991443;28;20607;-75
2021/12/16 05:21:38;;;;;;;81.90;25.27;;;;;;;6.86;100.00;103093.94;4990342;28;20042;-76
2021/12/16 05:26:47;;;;;;;74.70;24.90;;;;;;;6.91;100.00;103104.94;5004050;28;20496;-76
2021/12/16 05:29:19;;;;;;;70.13;24.63;;;;;;;6.87;100.00;103098.28;4990347;28;20061;-75
2021/12/16 05:31:45;;;;;;;80.53;24.17;;;;;;;6.83;100.00;103110.28;4997154;28;20041;-75
2021/12/16 05:34:11;;;;;;;68.28;23.50;;;;;;;6.73;100.00;103110.44;5005082;28;20068;-75
2021/12/16 05:36:37;;;;;;;65.00;22.25;;;;;;;6.86;100.00;103118.78;4997304;28;20041;-75
2021/12/16 05:39:07;;;;;;;71.00;22.80;;;;;;;6.88;100.00;103114.13;4963949;28;20075;-76
2021/12/16 05:41:33;;;;;;;71.15;22.70;;;;;;;6.88;100.00;103108.78;4989527;28;20689;-75
2021/12/16 05:43:59;;;;;;;71.00;22.40;;;;;;;6.81;100.00;103109.59;4988639;28;20180;-75
2021/12/16 05:46:27;;;;;;;74.80;23.55;;;;;;;6.93;100.00;103119.81;4991007;28;20112;-76
2021/12/16 05:48:54;;;;;;;56.58;20.63;;;;;;;6.90;100.00;103116.63;4991785;28;20438;-75
2021/12/16 05:51:27;;;;;;;75.93;21.85;;;;;;;6.91;100.00;103124.44;4990855;28;20065;-75
2021/12/16 05:53:55;;;;;;;64.85;22.90;;;;;;;6.93;100.00;103124.31;4991324;28;20036;-76
2021/12/16 05:56:23;;;;;;;60.20;21.55;;;;;;;6.87;100.00;103117.78;4991259;28;20045;-75
2021/12/16 05:58:49;;;;;;;82.28;22.45;;;;;;;6.87;100.00;103116.97;4991561;28;20381;-75
2021/12/16 06:01:20;;;;;;;66.28;21.08;;;;;;;6.81;100.00;103112.28;5006307;28;20593;-75
2021/12/16 06:03:46;;;;;;;73.75;23.08;;;;;;;6.81;100.00;103118.44;4990743;28;20101;-75
2021/12/16 06:06:13;;;;;;;67.65;22.15;;;;;;;6.78;100.00;103120.63;4992103;28;20034;-75
2021/12/16 06:08:41;;;;;;;76.15;22.23;;;;;;;6.70;100.00;103124.94;4993907;28;20627;-76
2021/12/16 06:11:19;;;;;;;81.15;24.25;;;;;;;6.66;100.00;103131.56;4980749;28;20038;-76
2021/12/16 06:14:00;;;;;;;77.43;22.98;;;;;;;6.65;100.00;103124.56;4990790;28;20049;-75
2021/12/16 06:27:26;;;;;;;75.47;24.08;;;;;;;6.63;100.00;103147.09;4990843;28;20065;-75
2021/12/16 06:29:54;;;;;;;65.90;22.38;;;;;;;6.59;100.00;103145.72;4990329;28;20494;-75
2021/12/16 06:32:20;;;;;;;74.90;23.90;;;;;;;6.57;100.00;103158.41;4992792;28;20045;-74
2021/12/16 06:34:46;;;;;;;71.68;23.90;;;;;;;6.64;100.00;103164.75;5004574;28;20037;-75
2021/12/16 06:37:12;;;;;;;80.68;23.85;;;;;;;6.65;100.00;103159.25;5000438;28;20036;-74
2021/12/16 06:39:40;;;;;;;80.15;24.90;;;;;;;6.68;100.00;103168.78;5006281;28;20022;-74
2021/12/16 06:42:09;;;;;;;71.55;24.90;;;;;;;6.64;100.00;103175.44;4995166;28;20040;-74
2021/12/16 06:47:42;;;;;;;69.82;22.80;;;;;;;6.63;100.00;103185.25;4995457;28;20564;-74
2021/12/16 06:50:13;;;;;;;83.28;24.08;;;;;;;6.70;100.00;103180.97;4998677;28;20202;-75
2021/12/16 06:52:45;;;;;;;68.80;23.95;;;;;;;6.76;100.00;103190.16;4991938;28;20037;-75
2021/12/16 06:55:36;;;;;;;67.80;23.38;;;;;;;6.74;100.00;103187.63;4990222;28;20034;-75
2021/12/16 06:58:14;;;;;;;62.22;22.83;;;;;;;6.77;100.00;103186.50;4994473;28;20034;-75
2021/12/16 07:00:45;;;;;;;77.50;22.73;;;;;;;6.89;100.00;103195.84;4993256;28;20056;-75
2021/12/16 07:03:20;;;;;;;73.25;22.80;;;;;;;6.90;100.00;103207.34;4996117;28;20122;-74
2021/12/16 07:05:53;;;;;;;68.82;22.73;;;;;;;6.71;100.00;103203.13;5002586;28;20504;-75
2021/12/16 07:08:25;;;;;;;67.13;22.83;;;;;;;6.78;100.00;103204.16;4999051;28;20045;-74
2021/12/16 07:10:54;;;;;;;80.35;22.85;;;;;;;6.84;100.00;103214.19;4995506;28;20033;-75
2021/12/16 07:13:29;;;;;;;71.75;23.35;;;;;;;6.80;100.00;103223.50;4998018;28;20508;-74
2021/12/16 07:15:56;;;;;;;69.25;25.15;;;;;;;6.69;100.00;103226.47;4995076;28;20046;-74
2021/12/16 07:18:22;;;;;;;77.22;24.67;;;;;;;6.63;100.00;103227.94;5009792;28;20087;-73
2021/12/16 07:20:52;;;;;;;79.53;24.63;;;;;;;6.56;100.00;103220.75;5000146;28;20690;-74
2021/12/16 07:23:17;;;;;;;79.05;24.23;;;;;;;6.54;100.00;103244.91;4994654;28;20559;-75
2021/12/16 07:25:43;;;;;;;75.00;25.02;;;;;;;6.44;100.00;103237.03;4999298;28;20117;-73
2021/12/16 07:28:09;;;;;;;83.93;25.50;;;;;;;6.50;100.00;103237.38;4999377;28;20034;-76
2021/12/16 07:30:38;;;;;;;85.63;25.02;;;;;;;6.49;100.00;103236.53;4988944;28;20084;-74
2021/12/16 07:33:07;;;;;;;96.72;26.00;;;;;;;6.47;100.00;103231.38;4993855;28;20037;-69
2021/12/16 07:35:35;;;;;;;79.30;25.00;;;;;;;6.51;100.00;103244.38;4998363;28;20117;-69
2021/12/16 07:38:01;;;;;;;90.13;25.95;;;;;;;6.49;100.00;103249.03;4993806;28;20059;-71
2021/12/16 07:40:28;;;;;;;77.88;25.25;;;;;;;6.39;100.00;103250.00;4993135;28;20037;-69
2021/12/16 07:45:38;;;;;;;84.18;24.67;;;;;;;6.32;100.00;103261.44;4993286;28;20033;-68
2021/12/16 07:48:06;;;;;;;88.97;23.95;;;;;;;6.25;100.00;103266.56;4992650;28;20048;-69
2021/12/16 07:50:36;;;;;;;79.53;24.88;;;;;;;6.16;100.00;103265.69;5006526;28;20038;-69
2021/12/16 07:53:02;;;;;;;79.93;25.38;;;;;;;6.16;100.00;103267.50;4993648;28;20819;-68
2021/12/16 07:55:28;;;;;;;76.93;24.42;;;;;;;6.14;100.00;103281.00;4997962;28;20163;-68
2021/12/16 07:57:53;;;;;;;76.75;23.90;;;;;;;6.12;100.00;103274.16;4990513;28;20083;-69
2021/12/16 08:00:24;;;;;;;79.63;24.85;;;;;;;6.13;100.00;103283.81;4997698;28;20032;-69
2021/12/16 08:02:52;;;;;;;77.95;24.75;;;;;;;6.10;100.00;103284.13;4993522;28;21944;-69
2021/12/16 08:05:21;;;;;;;89.07;24.02;;;;;;;6.07;100.00;103290.59;5007043;28;20036;-69
2021/12/16 08:07:47;;;;;;;74.65;24.75;;;;;;;6.02;100.00;103290.22;4993578;28;20026;-69
2021/12/16 08:10:16;;;;;;;94.93;25.30;;;;;;;6.09;100.00;103293.09;4992038;28;20287;-69
2021/12/16 08:12:44;;;;;;;75.57;24.58;;;;;;;6.13;100.00;103291.81;4992229;28;20176;-69
2021/12/16 08:15:10;;;;;;;85.63;25.13;;;;;;;6.14;100.00;103277.50;4992172;28;20107;-69
2021/12/16 08:17:35;;;;;;;81.10;25.95;;;;;;;6.31;100.00;103289.09;4992196;28;20045;-72
2021/12/16 08:20:04;;;;;;;79.22;26.23;;;;;;;6.30;100.00;103290.94;4991975;28;20044;-69
2021/12/16 08:22:30;;;;;;;86.28;25.33;;;;;;;6.38;100.00;103308.81;5006417;28;20038;-69
2021/12/16 08:24:56;;;;;;;84.00;25.92;;;;;;;6.37;100.00;103308.00;4995618;28;20182;-70
2021/12/16 08:27:24;;;;;;;79.80;25.60;;;;;;;6.36;100.00;103306.31;4992004;28;20125;-69
2021/12/16 08:29:49;;;;;;;77.50;24.95;;;;;;;6.43;100.00;103311.84;5007274;28;20499;-68
2021/12/16 08:32:18;;;;;;;82.50;25.38;;;;;;;6.42;100.00;103299.50;4992519;28;20030;-68
2021/12/16 08:34:46;;;;;;;82.22;27.33;;;;;;;6.62;100.00;103319.63;4981349;28;21996;-69
2021/12/16 08:37:14;;;;;;;80.00;25.13;;;;;;;6.77;100.00;103330.56;4991145;28;20029;-69
2021/12/16 08:39:43;;;;;;;65.88;24.02;;;;;;;6.76;100.00;103318.22;4984254;28;20182;-69
2021/12/16 08:42:09;;;;;;;83.72;24.95;;;;;;;6.77;100.00;103319.91;4980721;28;20531;-68
2021/12/16 08:44:35;;;;;;;71.63;24.58;;;;;;;6.75;100.00;103316.53;4991072;28;20088;-68
2021/12/16 08:47:05;;;;;;;70.88;23.30;;;;;;;6.84;100.00;103334.28;4989589;28;20161;-69
2021/12/16 08:49:33;;;;;;;87.97;26.35;;;;;;;6.82;100.00;103335.41;4990643;28;20067;-68
2021/12/16 08:52:04;;;;;;;95.13;27.50;;;;;;;6.74;100.00;103341.53;4996669;28;20037;-69
2021/12/16 08:54:30;;;;;;;76.82;25.20;;;;;;;6.60;100.00;103336.81;4991488;28;20533;-69
2021/12/16 08:56:55;;;;;;;73.07;24.40;;;;;;;6.50;100.00;103336.06;4991371;28;20120;-71
2021/12/16 08:59:24;;;;;;;73.50;25.48;;;;;;;6.32;100.00;103323.59;4991392;28;20176;-68
2021/12/16 09:01:56;;;;;;;79.30;26.15;;;;;;;6.29;100.00;103331.94;4997522;28;20037;-69
2021/12/16 09:04:23;;;;;;;67.10;24.33;;;;;;;6.17;100.00;103327.81;4999758;28;20115;-70
2021/12/16 09:06:51;;;;;;;73.82;24.77;;;;;;;6.16;100.00;103347.47;4991625;28;20341;-69
2021/12/16 09:09:19;;;;;;;68.25;23.70;;;;;;;6.12;100.00;103346.97;4982400;28;20091;-69
2021/12/16 09:12:02;;;;;;;71.80;23.90;;;;;;;6.09;100.00;103347.25;4990293;28;20038;-69
2021/12/16 09:14:31;;;;;;;66.57;23.10;;;;;;;6.12;100.00;103351.44;4991749;28;20049;-70
2021/12/16 09:16:57;;;;;;;78.97;24.65;;;;;;;6.15;100.00;103357.31;4995034;28;20444;-70
2021/12/16 09:19:23;;;;;;;76.28;25.88;;;;;;;6.16;100.00;103358.13;4973216;28;20053;-70
2021/12/16 09:21:51;;;;;;;72.22;24.98;;;;;;;6.12;100.00;103362.94;5006065;28;20068;-69
2021/12/16 09:24:17;;;;;;;79.88;25.85;;;;;;;6.19;100.00;103368.50;4996348;28;20216;-70
2021/12/16 09:26:44;;;;;;;75.70;25.63;;;;;;;6.21;100.00;103369.19;4990690;28;20061;-70
2021/12/16 09:29:10;;;;;;;70.32;25.88;;;;;;;6.32;100.00;103374.25;5005302;28;20060;-69
2021/12/16 09:31:35;;;;;;;82.68;24.58;;;;;;;6.36;100.00;103378.31;5000338;28;20029;-69
2021/12/16 09:34:06;;;;;;;71.10;25.65;;;;;;;6.36;100.00;103374.81;4990266;28;20407;-70
2021/12/16 09:36:32;;;;;;;71.90;25.98;;;;;;;6.36;100.00;103358.81;4984222;28;20030;-69
2021/12/16 09:39:00;;;;;;;69.05;26.00;;;;;;;6.52;100.00;103363.44;4978754;28;20033;-70
2021/12/16 09:41:28;;;;;;;87.07;26.60;;;;;;;6.67;100.00;103373.34;4996184;28;20802;-69
2021/12/16 09:43:56;;;;;;;78.82;27.63;;;;;;;6.73;100.00;103375.38;5001173;28;20426;-69
2021/12/16 09:46:26;;;;;;;84.95;27.70;;;;;;;6.83;100.00;103387.78;4990163;28;20077;-70
2021/12/16 09:48:56;;;;;;;81.22;26.80;;;;;;;6.80;100.00;103382.78;4988906;28;20049;-69
2021/12/16 09:51:24;;;;;;;83.70;28.05;;;;;;;6.80;100.00;103380.09;4990180;28;20029;-69
2021/12/16 09:53:52;;;;;;;82.65;27.45;;;;;;;6.75;100.00;103383.22;4988281;28;21969;-71
2021/12/16 09:56:19;;;;;;;88.03;29.30;;;;;;;6.71;100.00;103380.06;4979910;28;20261;-69
2021/12/16 09:58:46;;;;;;;75.88;27.17;;;;;;;6.70;100.00;103385.56;4990872;28;20033;-69
2021/12/16 10:01:15;;;;;;;75.43;27.63;;;;;;;6.81;100.00;103373.78;4990643;28;20419;-69
2021/12/16 10:03:43;;;;;;;88.45;29.75;;;;;;;7.01;100.00;103391.25;4988506;28;20132;-69
2021/12/16 10:06:09;;;;;;;78.55;30.45;;;;;;;7.17;100.00;103390.50;4980449;28;20128;-70
2021/12/16 10:08:35;;;;;;;89.32;35.35;;;;;;;7.27;100.00;103396.53;4989894;28;20036;-71
2021/12/16 10:11:04;;;;;;;79.07;31.02;;;;;;;7.34;100.00;103392.22;4995415;28;20412;-69
2021/12/16 10:13:59;;;;;;;83.38;30.40;;;;;;;7.40;100.00;103396.91;4978774;28;20675;-69
2021/12/16 10:19:14;;;;;;;89.70;28.77;;;;;;;7.53;100.00;103389.28;4989402;28;20030;-69
2021/12/16 10:21:42;;;;;;;96.18;30.27;;;;;;;7.62;100.00;103389.31;4991075;28;20180;-69
2021/12/16 10:24:28;;;;;;;90.05;30.67;;;;;;;7.73;100.00;103391.66;4989206;28;20492;-69
2021/12/16 10:27:26;;;;;;;93.90;32.15;;;;;;;7.67;100.00;103381.66;4990870;28;20613;-69
2021/12/16 10:29:59;;;;;;;105.35;31.70;;;;;;;7.73;100.00;103384.47;4979289;28;20049;-70
2021/12/16 10:32:45;;;;;;;95.88;32.92;;;;;;;7.81;100.00;103395.19;5005682;28;20152;-69
2021/12/16 10:35:15;;;;;;;108.97;34.10;;;;;;;7.86;100.00;103395.53;4983573;28;20477;-69
2021/12/16 10:37:49;;;;;;;109.72;33.92;;;;;;;7.89;100.00;103391.69;4981265;28;20300;-69
2021/12/16 10:40:43;;;;;;;126.32;36.28;;;;;;;7.88;100.00;103400.72;4995332;28;20067;-69
2021/12/16 10:43:35;;;;;;;107.10;32.53;;;;;;;7.81;100.00;103402.38;4982440;28;20567;-70
2021/12/16 10:46:17;;;;;;;106.82;32.97;;;;;;;7.77;100.00;103401.88;4993794;28;20037;-70
2021/12/16 10:48:50;;;;;;;125.35;35.92;;;;;;;7.77;100.00;103404.56;4993907;28;20050;-70
2021/12/16 10:51:21;;;;;;;106.90;35.47;;;;;;;7.86;100.00;103397.38;5003571;28;20568;-70
2021/12/16 10:53:51;;;;;;;116.57;36.72;;;;;;;7.96;100.00;103399.91;4997975;28;20116;-69
2021/12/16 10:56:21;;;;;;;112.55;35.83;;;;;;;7.94;100.00;103404.59;5009118;28;20049;-69
2021/12/16 10:58:48;;;;;;;112.03;34.75;;;;;;;7.92;100.00;103407.44;4997393;28;20065;-70
2021/12/16 11:01:44;;;;;;;116.43;35.35;;;;;;;7.91;100.00;103400.41;4994219;28;20045;-69
2021/12/16 11:04:20;;;;;;;112.45;35.67;;;;;;;8.02;100.00;103402.75;4998544;28;20691;-70
2021/12/16 11:06:59;;;;;;;88.07;33.20;;;;;;;8.13;100.00;103398.91;4996709;28;22067;-71
2021/12/16 11:09:39;;;;;;;112.13;36.92;;;;;;;8.19;100.00;103397.44;4993485;28;20095;-70
2021/12/16 11:12:09;;;;;;;113.70;36.25;;;;;;;8.15;100.00;103392.41;4992452;28;20140;-69
2021/12/16 11:14:39;;;;;;;126.50;37.00;;;;;;;8.13;100.00;103399.75;4993639;28;20077;-69
2021/12/16 11:17:07;;;;;;;108.20;36.90;;;;;;;8.13;100.00;103407.78;4993710;28;20053;-70
2021/12/16 11:19:42;;;;;;;109.30;35.17;;;;;;;8.12;100.00;103403.44;4993712;28;20114;-69
2021/12/16 11:22:09;;;;;;;124.93;37.00;;;;;;;8.15;100.00;103397.78;4994424;28;20045;-75
2021/12/16 11:24:37;;;;;;;106.22;35.17;;;;;;;8.09;100.00;103401.09;4995025;28;20686;-75
2021/12/16 11:27:38;;;;;;;104.30;34.80;;;;;;;8.12;100.00;103410.63;4994502;28;20044;-74
2021/12/16 11:30:34;;;;;;;99.40;34.00;;;;;;;8.15;100.00;103416.50;4991890;28;20083;-74
2021/12/16 11:33:26;;;;;;;116.03;35.03;;;;;;;8.14;100.00;103412.16;4953697;28;20496;-76
2021/12/16 11:36:11;;;;;;;107.82;34.67;;;;;;;8.13;100.00;103405.09;5000158;28;20061;-74
2021/12/16 11:38:49;;;;;;;139.73;36.13;;;;;;;8.09;100.00;103408.28;5009784;28;20060;-76
2021/12/16 11:41:30;;;;;;;105.65;35.05;;;;;;;8.06;100.00;103414.81;5008316;28;20040;-74
2021/12/16 11:43:59;;;;;;;106.13;34.22;;;;;;;8.10;100.00;103412.63;5002079;28;20440;-75
2021/12/16 11:46:31;;;;;;;122.55;34.85;;;;;;;8.11;100.00;103411.63;4994584;28;20033;-74
2021/12/16 11:49:00;;;;;;;97.80;34.10;;;;;;;8.10;100.00;103413.47;5008958;28;20041;-75
2021/12/16 11:51:34;;;;;;;103.88;32.95;;;;;;;8.15;100.00;103408.47;4982707;28;20144;-75
2021/12/16 11:54:04;;;;;;;99.45;33.85;;;;;;;8.24;100.00;103411.16;4993728;28;20053;-74
2021/12/16 11:56:41;;;;;;;110.07;34.72;;;;;;;8.16;100.00;103409.31;4994380;28;20032;-76
2021/12/16 11:59:08;;;;;;;103.15;33.35;;;;;;;8.21;100.00;103408.78;5008839;28;20042;-76
2021/12/16 12:01:36;;;;;;;100.53;32.33;;;;;;;8.24;100.00;103401.28;4999661;28;20036;-75
2021/12/16 12:04:07;;;;;;;108.00;34.00;;;;;;;8.29;100.00;103403.44;4995075;28;20539;-73
2021/12/16 12:06:33;;;;;;;106.15;33.20;;;;;;;8.29;100.00;103403.44;4999111;28;20057;-76
2021/12/16 12:09:00;;;;;;;102.03;32.13;;;;;;;8.31;100.00;103404.97;5002055;28;20120;-76
2021/12/16 12:11:32;;;;;;;103.43;32.60;;;;;;;8.33;100.00;103405.63;4993757;28;20033;-76
2021/12/16 12:14:06;;;;;;;97.50;31.30;;;;;;;8.32;100.00;103392.44;4994658;28;20046;-76
2021/12/16 12:16:41;;;;;;;99.88;32.15;;;;;;;8.37;100.00;103395.44;5006438;28;20131;-75
2021/12/16 12:19:17;;;;;;;105.55;32.95;;;;;;;8.39;100.00;103398.81;4995984;28;20065;-75
2021/12/16 12:22:00;;;;;;;100.03;32.85;;;;;;;8.39;100.00;103398.81;4994555;28;20848;-77
2021/12/16 12:24:32;;;;;;;;;;;;;;;8.31;100.00;103383.56;4994458;28;21962;-77
2021/12/16 12:27:11;;;;;;;88.32;29.23;;;;;;;8.37;100.00;103390.09;4996956;28;19924;-77
2021/12/16 12:29:48;;;;;;;96.78;32.22;;;;;;;8.42;100.00;103387.75;5007513;28;20127;-76
2021/12/16 12:32:27;;;;;;;93.70;31.55;;;;;;;8.40;100.00;103384.44;4982218;28;20036;-75
2021/12/16 12:35:00;;;;;;;101.55;32.40;;;;;;;8.41;100.00;103391.44;4997431;28;20064;-75
2021/12/16 12:37:28;;;;;;;113.53;34.63;;;;;;;8.45;100.00;103400.78;4991978;28;20030;-76
2021/12/16 12:40:06;;;;;;;105.38;33.45;;;;;;;8.37;100.00;103401.63;4992314;28;20037;-77
2021/12/16 12:42:35;;;;;;;114.13;34.55;;;;;;;8.32;100.00;103403.97;5006072;28;20812;-75
2021/12/16 12:45:08;;;;;;;111.73;35.10;;;;;;;8.27;100.00;103408.13;4996965;28;20030;-74
2021/12/16 12:47:35;;;;;;;113.13;34.80;;;;;;;8.28;100.00;103405.28;4990687;28;20289;-75
2021/12/16 12:50:09;;;;;;;114.00;33.47;;;;;;;8.28;100.00;103407.13;4995660;28;20049;-75
2021/12/16 12:52:36;;;;;;;106.82;33.03;;;;;;;8.21;100.00;103401.59;4991385;28;20429;-76
2021/12/16 12:55:09;;;;;;;94.03;31.23;;;;;;;8.20;100.00;103389.22;4992131;28;20393;-76
2021/12/16 12:57:36;;;;;;;96.07;31.98;;;;;;;8.26;100.00;103398.44;5005418;28;20091;-76
2021/12/16 13:00:06;;;;;;;98.43;32.55;;;;;;;8.32;100.00;103393.25;4992004;28;20567;-76
2021/12/16 13:02:35;;;;;;;100.47;32.42;;;;;;;8.30;100.00;103405.09;4989840;28;20056;-76
2021/12/16 13:05:05;;;;;;;92.28;32.55;;;;;;;8.25;100.00;103386.06;4998199;28;20037;-77
2021/12/16 13:07:31;;;;;;;98.93;31.95;;;;;;;8.26;100.00;103398.44;4991010;28;20176;-76
2021/12/16 13:09:57;;;;;;;91.43;31.27;;;;;;;8.18;100.00;103391.25;4991658;28;20041;-70
2021/12/16 13:12:44;;;;;;;87.47;30.50;;;;;;;8.18;100.00;103391.25;4984245;28;20438;-70
2021/12/16 13:15:22;;;;;;;80.78;29.85;;;;;;;8.23;100.00;103401.47;4995231;28;20568;-70
2021/12/16 13:29:12;;;;;;;94.82;31.38;;;;;;;8.17;100.00;103405.63;4995319;28;20120;-69
2021/12/16 13:32:31;;;;;;;81.18;29.77;;;;;;;8.15;100.00;103408.47;4991750;28;20033;-70
2021/12/16 13:35:05;;;;;;;89.35;30.85;;;;;;;8.13;100.00;103413.13;4992306;28;20038;-69
2021/12/16 13:37:37;;;;;;;79.32;28.95;;;;;;;8.12;100.00;103408.78;4982486;28;20068;-73
2021/12/16 13:40:25;;;;;;;90.72;28.63;;;;;;;8.12;100.00;103403.44;4988890;28;20080;-70
2021/12/16 13:42:56;;;;;;;85.75;29.02;;;;;;;8.08;100.00;103406.63;4977197;28;20589;-70
2021/12/16 13:45:30;;;;;;;97.28;29.50;;;;;;;8.06;100.00;103406.78;4992659;28;20044;-69
2021/12/16 13:48:31;;;;;;;85.75;29.23;;;;;;;8.06;100.00;103413.94;4987086;28;20052;-69
2021/12/16 14:02:48;;;;;;;79.63;28.20;;;;;;;7.91;100.00;103416.44;4989784;28;21968;-70
2021/12/16 14:05:29;;;;;;;88.78;30.30;;;;;;;7.87;100.00;103421.28;4989256;28;20132;-69
2021/12/16 14:08:00;;;;;;;96.15;30.95;;;;;;;7.90;100.00;103421.94;4994599;28;20033;-69
2021/12/16 14:10:39;;;;;;;79.72;28.40;;;;;;;7.88;100.00;103422.09;4993841;28;20589;-71
2021/12/16 14:25:25;;;;;;;89.95;31.83;;;;;;;7.66;100.00;103423.56;4991054;28;20018;-70
2021/12/16 14:39:05;;;;;;;89.88;31.23;;;;;;;7.53;100.00;103428.53;4992416;28;20036;-69
2021/12/16 14:46:44;;;;;;;103.82;33.30;;;;;;;7.38;100.00;103436.31;4990487;28;20069;-69
2021/12/16 14:49:09;;;;;;;94.05;32.45;;;;;;;7.35;100.00;103436.63;4991682;28;20133;-72
2021/12/16 14:51:38;;;;;;;114.28;32.92;;;;;;;7.37;100.00;103445.31;4991796;28;20033;-69
2021/12/16 14:54:03;;;;;;;106.40;32.38;;;;;;;7.28;100.00;103441.78;4990054;28;20075;-72
2021/12/16 14:56:34;;;;;;;98.50;31.42;;;;;;;7.20;100.00;103443.56;4990389;28;20111;-69
2021/12/16 14:59:11;;;;;;;108.10;33.45;;;;;;;7.27;100.00;103455.28;4989273;28;20037;-69